Airport Name : La Gomera

Other Name : La Gomera

ICAO : GCGM

IATA : GMZ

FAA :

Latitude : 28.029625

Longitude : -17.2146

Country : Spain

Local Date and Time : 15 Jul 2024 15:19

 

TAF (Terminal Aerodrome Forecast)

TAF GCGM 150800Z 1509/1609 22006KT CAVOK TX26/1514Z TN20/1606Z

 

METAR (METeorological Aerodrome Report)

GCGM 151400Z 22005KT 150V290 CAVOK 27/16 Q1018 RMK R09/VRB04KT ARP/19005KT 140V250

GCGM 151330Z 21005KT 160V260 CAVOK 26/17 Q1018 RMK R09/17004KT 120V230 ARP/20005KT 120V290

GCGM 151300Z 22004KT 170V290 CAVOK 27/15 Q1018 RMK R09/VRB03KT ARP/20004KT 140V270

GCGM 151230Z 22006KT 190V270 CAVOK 27/15 Q1018 RMK R09/VRB05KT ARP/23005KT 160V280

GCGM 151200Z 22005KT 160V280 CAVOK 27/14 Q1018 RMK R09/VRB04KT ARP/21004KT 160V290

GCGM 151130Z 22005KT 160V280 CAVOK 26/15 Q1018 RMK R09/23004KT 190V290 ARP/22005KT 160V270

GCGM 151100Z 24006KT 200V280 CAVOK 26/15 Q1018 RMK R09/25004KT 180V300 ARP/23005KT 190V270

GCGM 151030Z 23006KT 190V260 CAVOK 25/14 Q1017 RMK R09/25004KT 200V280 ARP/24006KT 200V270